Archival Weather

Republic

Farmingdale, New York (KFRG)

Report from: Wednesday, January 24, 2024 10:53 PM EST
Current time: Monday, June 17, 2024 3:56 AM EDT

Current weather – Weather history – Daily summaries
Weather forecast

Temperature7.8°C (46.0°F)
Wind chill6.2°C (43.1°F)
Dew point7.2°C (45.0°F)
Winds 5 kts (2.6 m/s, 5.8 mph) Southwest (230°)
Visibility8 mi. (12.9 km)
Clouds Few clouds 600 ft. (183 m)
Ceiling: Overcast 7,500 ft. (2,286 m)
Altimeter30.26 in.Hg (1025 mB)
Relative humidity96 %
Density altitude-1,104 ft. (-336 m)
Sea-level pressure102.5 kPa (1025 mB, 30.26 in.Hg)
Remarks Fully automated report
Automated weather observing station with precipitation discriminator
Present weather sensor not operating
Flight conditions Visual Meteorological Conditions
Raw dataKFRG 250353Z AUTO 23005KT 8SM FEW006 OVC075 08/07 A3026 RMK AO2 SLP246 T00780072 PWINO
An error has occurred. This application may no longer respond until reloaded. Reload 🗙